Aérodrome :
LOGIN :

S'inscrire | Disclaimer

   EN    FR    IT 

 










Légende :    VFR   VFR Marginal   IFR   IFR Intensif   IFR Très Intensif
Visi : 
Plafond : 
>= 8 km
>= 3000ft
5 à 8 km
1000 à 3000 ft
1500m à 5 km
500 à 1000 ft
800 à 1500m
200 à 500 ft
< 800m
< 200 ft
Symboles :   Orages  Brouillard  Fortes neiges  Fortes précipitations  Vent > 20 kt
SIGMETs :   Divers  Orages  Givrage  Turbulence  Onde Orograph.  Cendres Volcan.







- Altitude de l'aérodrome : 121 ft
- Code IATA : HUY
- Voir les cartes d'approche


EGNJ - Humberside

DERNIER METAR :
  • 200450Z AUTO 20012KT //// // NCD 08/07 Q1027

METARs EXPIRÉS :
  • 200420Z AUTO 21012KT //// // NCD 08/07 Q1027
  • 200350Z AUTO 20009KT //// // NCD 09/08 Q1027
  • 200320Z AUTO 20011KT //// // NCD 08/07 Q1027
  • 200250Z AUTO 20011KT //// // BKN016/// 09/07 Q1027
  • 200220Z AUTO 21008KT //// // OVC017/// 09/08 Q1027

TAF TAF EGNJ
Valide du 19 à 21h jusqu'au 20 à 06h UTC


191955Z 1921/2006 24006KT 9999 SCT030
PROB40
TEMPO 2000/2006 BKN014
ATIS : +44 1652 682 020
Pas de NOTAMs connus pour ce terrain.



MET'MAP, la Météo Aéronautique d'un coup d'oeil ! - Copyright ORBIFLY Décembre 2007 - Disclaimer

ORBIFLY MET'MAP TEAM :

Programmation & Développement : Alexandra Zaïnal
Conception & Développement : Baudouin d'Aumeries
Co-Programmation & Développement : Marc-Olivier Méhu
Soutien technique & logistique : Manuel Goepfert

Contact : metmap@orbifly.com




SOURCES & CREDITS :

   NOAA